sensor_id;sensor_type;location;lat;lon;timestamp;temperature;humidity
67279;DHT22;54193;53.746;10.058;2023-04-29T00:00:26;7.58;91.88
67279;DHT22;54193;53.746;10.058;2023-04-29T00:03:11;7.55;91.94
67279;DHT22;54193;53.746;10.058;2023-04-29T00:05:58;7.58;91.98
67279;DHT22;54193;53.746;10.058;2023-04-29T00:08:43;7.58;92.08
67279;DHT22;54193;53.746;10.058;2023-04-29T00:11:29;7.58;92.14
67279;DHT22;54193;53.746;10.058;2023-04-29T00:14:14;7.56;91.97
67279;DHT22;54193;53.746;10.058;2023-04-29T00:17:01;7.58;92.12
67279;DHT22;54193;53.746;10.058;2023-04-29T00:19:46;7.54;92.09
67279;DHT22;54193;53.746;10.058;2023-04-29T00:22:32;7.52;91.99
67279;DHT22;54193;53.746;10.058;2023-04-29T00:25:18;7.50;91.89
67279;DHT22;54193;53.746;10.058;2023-04-29T00:28:05;7.48;91.92
67279;DHT22;54193;53.746;10.058;2023-04-29T00:30:51;7.41;91.99
67279;DHT22;54193;53.746;10.058;2023-04-29T00:33:37;7.45;91.98
67279;DHT22;54193;53.746;10.058;2023-04-29T00:36:25;7.44;92.12
67279;DHT22;54193;53.746;10.058;2023-04-29T00:39:10;7.45;91.97
67279;DHT22;54193;53.746;10.058;2023-04-29T00:41:58;7.44;91.98
67279;DHT22;54193;53.746;10.058;2023-04-29T00:44:43;7.44;92.09
67279;DHT22;54193;53.746;10.058;2023-04-29T00:47:29;7.37;92.10
67279;DHT22;54193;53.746;10.058;2023-04-29T00:50:14;7.37;91.93
67279;DHT22;54193;53.746;10.058;2023-04-29T00:53:00;7.35;92.04
67279;DHT22;54193;53.746;10.058;2023-04-29T00:55:47;7.35;92.00
67279;DHT22;54193;53.746;10.058;2023-04-29T00:58:35;7.30;92.32
67279;DHT22;54193;53.746;10.058;2023-04-29T01:01:20;7.28;92.09
67279;DHT22;54193;53.746;10.058;2023-04-29T01:04:06;7.34;92.13
67279;DHT22;54193;53.746;10.058;2023-04-29T01:07:15;7.27;92.06
67279;DHT22;54193;53.746;10.058;2023-04-29T01:10:10;7.30;92.35
67279;DHT22;54193;53.746;10.058;2023-04-29T01:16:01;7.23;92.49
67279;DHT22;54193;53.746;10.058;2023-04-29T01:18:56;7.27;92.52
67279;DHT22;54193;53.746;10.058;2023-04-29T01:21:46;7.24;92.56
67279;DHT22;54193;53.746;10.058;2023-04-29T01:24:35;7.26;92.70
67279;DHT22;54193;53.746;10.058;2023-04-29T01:27:49;7.28;92.67
67279;DHT22;54193;53.746;10.058;2023-04-29T01:33:47;7.24;92.50
67279;DHT22;54193;53.746;10.058;2023-04-29T01:36:52;7.26;92.71
67279;DHT22;54193;53.746;10.058;2023-04-29T01:39:55;7.18;92.61
67279;DHT22;54193;53.746;10.058;2023-04-29T01:42:48;7.27;92.57
67279;DHT22;54193;53.746;10.058;2023-04-29T01:45:37;7.26;92.56
67279;DHT22;54193;53.746;10.058;2023-04-29T01:48:25;7.20;92.69
67279;DHT22;54193;53.746;10.058;2023-04-29T01:51:12;7.26;92.72
67279;DHT22;54193;53.746;10.058;2023-04-29T01:53:57;7.30;92.90
67279;DHT22;54193;53.746;10.058;2023-04-29T01:56:43;7.13;92.79
67279;DHT22;54193;53.746;10.058;2023-04-29T01:59:29;7.14;92.98
67279;DHT22;54193;53.746;10.058;2023-04-29T02:02:15;7.10;92.91
67279;DHT22;54193;53.746;10.058;2023-04-29T02:05:05;7.13;93.29
67279;DHT22;54193;53.746;10.058;2023-04-29T02:07:51;7.10;93.04
67279;DHT22;54193;53.746;10.058;2023-04-29T02:10:37;7.06;93.17
67279;DHT22;54193;53.746;10.058;2023-04-29T02:13:22;7.07;93.12
67279;DHT22;54193;53.746;10.058;2023-04-29T02:16:13;7.04;93.14
67279;DHT22;54193;53.746;10.058;2023-04-29T02:18:59;7.01;93.19
67279;DHT22;54193;53.746;10.058;2023-04-29T02:21:45;6.97;93.10
67279;DHT22;54193;53.746;10.058;2023-04-29T02:24:30;7.00;93.10
67279;DHT22;54193;53.746;10.058;2023-04-29T02:27:16;7.04;93.06
67279;DHT22;54193;53.746;10.058;2023-04-29T02:30:02;7.03;93.13
67279;DHT22;54193;53.746;10.058;2023-04-29T02:32:49;7.00;93.14
67279;DHT22;54193;53.746;10.058;2023-04-29T02:35:35;7.07;93.09
67279;DHT22;54193;53.746;10.058;2023-04-29T02:38:21;7.07;93.09
67279;DHT22;54193;53.746;10.058;2023-04-29T02:41:07;7.03;93.09
67279;DHT22;54193;53.746;10.058;2023-04-29T02:43:52;6.99;93.19
67279;DHT22;54193;53.746;10.058;2023-04-29T02:46:38;7.01;93.19
67279;DHT22;54193;53.746;10.058;2023-04-29T02:49:25;7.04;93.32
67279;DHT22;54193;53.746;10.058;2023-04-29T02:52:12;7.13;93.27
67279;DHT22;54193;53.746;10.058;2023-04-29T02:54:58;7.20;93.30
67279;DHT22;54193;53.746;10.058;2023-04-29T02:57:43;7.14;93.20
67279;DHT22;54193;53.746;10.058;2023-04-29T03:00:29;7.07;93.18
67279;DHT22;54193;53.746;10.058;2023-04-29T03:03:14;6.99;93.48
67279;DHT22;54193;53.746;10.058;2023-04-29T03:06:00;7.00;93.46
67279;DHT22;54193;53.746;10.058;2023-04-29T03:08:46;7.06;93.34
67279;DHT22;54193;53.746;10.058;2023-04-29T03:11:31;7.07;93.31
67279;DHT22;54193;53.746;10.058;2023-04-29T03:14:17;7.10;93.45
67279;DHT22;54193;53.746;10.058;2023-04-29T03:17:02;7.11;93.29
67279;DHT22;54193;53.746;10.058;2023-04-29T03:19:49;7.14;93.35
67279;DHT22;54193;53.746;10.058;2023-04-29T03:22:35;7.20;93.34
67279;DHT22;54193;53.746;10.058;2023-04-29T03:25:21;7.27;93.25
67279;DHT22;54193;53.746;10.058;2023-04-29T03:28:07;7.26;93.04
67279;DHT22;54193;53.746;10.058;2023-04-29T03:30:53;7.20;93.11
67279;DHT22;54193;53.746;10.058;2023-04-29T03:33:38;7.14;93.17
67279;DHT22;54193;53.746;10.058;2023-04-29T03:36:24;7.14;93.26
67279;DHT22;54193;53.746;10.058;2023-04-29T03:39:10;7.08;93.14
67279;DHT22;54193;53.746;10.058;2023-04-29T03:41:57;7.07;93.22
67279;DHT22;54193;53.746;10.058;2023-04-29T03:44:43;7.06;93.32
67279;DHT22;54193;53.746;10.058;2023-04-29T03:47:29;6.99;93.42
67279;DHT22;54193;53.746;10.058;2023-04-29T03:50:15;6.95;93.45
67279;DHT22;54193;53.746;10.058;2023-04-29T03:53:01;6.92;93.53
67279;DHT22;54193;53.746;10.058;2023-04-29T03:55:46;6.93;93.55
67279;DHT22;54193;53.746;10.058;2023-04-29T03:58:33;6.90;93.57
67279;DHT22;54193;53.746;10.058;2023-04-29T04:01:18;6.90;93.59
67279;DHT22;54193;53.746;10.058;2023-04-29T04:04:04;6.88;93.58
67279;DHT22;54193;53.746;10.058;2023-04-29T04:06:50;6.88;93.55
67279;DHT22;54193;53.746;10.058;2023-04-29T04:09:36;6.92;93.37
67279;DHT22;54193;53.746;10.058;2023-04-29T04:12:22;6.93;93.28
67279;DHT22;54193;53.746;10.058;2023-04-29T04:15:08;6.93;93.05
67279;DHT22;54193;53.746;10.058;2023-04-29T04:17:54;6.92;93.14
67279;DHT22;54193;53.746;10.058;2023-04-29T04:20:40;6.88;93.26
67279;DHT22;54193;53.746;10.058;2023-04-29T04:23:26;6.86;93.20
67279;DHT22;54193;53.746;10.058;2023-04-29T04:26:12;6.88;93.11
67279;DHT22;54193;53.746;10.058;2023-04-29T04:28:58;6.80;93.13
67279;DHT22;54193;53.746;10.058;2023-04-29T04:31:43;6.73;93.23
67279;DHT22;54193;53.746;10.058;2023-04-29T04:34:29;6.71;93.14
67279;DHT22;54193;53.746;10.058;2023-04-29T04:37:15;6.69;93.15
67279;DHT22;54193;53.746;10.058;2023-04-29T04:40:00;6.67;93.21
67279;DHT22;54193;53.746;10.058;2023-04-29T04:42:46;6.61;93.20
67279;DHT22;54193;53.746;10.058;2023-04-29T04:45:32;6.62;93.25
67279;DHT22;54193;53.746;10.058;2023-04-29T04:48:17;6.48;93.18
67279;DHT22;54193;53.746;10.058;2023-04-29T04:51:10;6.52;93.14
67279;DHT22;54193;53.746;10.058;2023-04-29T04:53:56;6.49;93.21
67279;DHT22;54193;53.746;10.058;2023-04-29T04:56:41;6.52;92.99
67279;DHT22;54193;53.746;10.058;2023-04-29T04:59:27;6.55;92.77
67279;DHT22;54193;53.746;10.058;2023-04-29T05:02:13;6.51;92.42
67279;DHT22;54193;53.746;10.058;2023-04-29T05:04:59;6.56;92.45
67279;DHT22;54193;53.746;10.058;2023-04-29T05:07:44;6.58;91.92
67279;DHT22;54193;53.746;10.058;2023-04-29T05:10:30;6.56;92.13
67279;DHT22;54193;53.746;10.058;2023-04-29T05:13:17;6.61;91.93
67279;DHT22;54193;53.746;10.058;2023-04-29T05:16:03;6.64;91.68
67279;DHT22;54193;53.746;10.058;2023-04-29T05:18:50;6.67;91.31
67279;DHT22;54193;53.746;10.058;2023-04-29T05:21:35;6.80;91.02
67279;DHT22;54193;53.746;10.058;2023-04-29T05:24:21;6.73;90.91
67279;DHT22;54193;53.746;10.058;2023-04-29T05:27:06;6.88;90.73
67279;DHT22;54193;53.746;10.058;2023-04-29T05:29:52;6.93;90.34
67279;DHT22;54193;53.746;10.058;2023-04-29T05:32:38;6.95;90.43
67279;DHT22;54193;53.746;10.058;2023-04-29T05:35:23;7.04;90.06
67279;DHT22;54193;53.746;10.058;2023-04-29T05:38:09;7.08;90.27
67279;DHT22;54193;53.746;10.058;2023-04-29T05:40:55;7.10;89.38
67279;DHT22;54193;53.746;10.058;2023-04-29T05:43:41;7.17;88.54
67279;DHT22;54193;53.746;10.058;2023-04-29T05:46:26;7.27;88.55
67279;DHT22;54193;53.746;10.058;2023-04-29T05:49:12;7.38;88.47
67279;DHT22;54193;53.746;10.058;2023-04-29T05:51:57;7.44;87.94
67279;DHT22;54193;53.746;10.058;2023-04-29T05:54:48;7.48;87.39
67279;DHT22;54193;53.746;10.058;2023-04-29T05:57:34;7.61;87.94
67279;DHT22;54193;53.746;10.058;2023-04-29T06:00:19;7.69;87.34
67279;DHT22;54193;53.746;10.058;2023-04-29T06:03:05;7.81;87.79
67279;DHT22;54193;53.746;10.058;2023-04-29T06:05:51;7.94;87.40
67279;DHT22;54193;53.746;10.058;2023-04-29T06:08:36;8.02;86.95
67279;DHT22;54193;53.746;10.058;2023-04-29T06:11:22;8.09;87.28
67279;DHT22;54193;53.746;10.058;2023-04-29T06:14:08;8.23;86.53
67279;DHT22;54193;53.746;10.058;2023-04-29T06:16:53;8.34;86.68
67279;DHT22;54193;53.746;10.058;2023-04-29T06:19:39;8.38;86.52
67279;DHT22;54193;53.746;10.058;2023-04-29T06:22:25;8.62;86.02
67279;DHT22;54193;53.746;10.058;2023-04-29T06:25:10;8.71;84.41
67279;DHT22;54193;53.746;10.058;2023-04-29T06:27:56;8.90;84.61
67279;DHT22;54193;53.746;10.058;2023-04-29T06:30:42;8.82;83.96
67279;DHT22;54193;53.746;10.058;2023-04-29T06:33:28;8.76;84.06
67279;DHT22;54193;53.746;10.058;2023-04-29T06:36:14;8.51;84.17
67279;DHT22;54193;53.746;10.058;2023-04-29T06:39:00;8.99;83.96
67279;DHT22;54193;53.746;10.058;2023-04-29T06:41:46;8.68;83.38
67279;DHT22;54193;53.746;10.058;2023-04-29T06:44:32;8.86;83.05
67279;DHT22;54193;53.746;10.058;2023-04-29T06:47:17;9.40;82.96
67279;DHT22;54193;53.746;10.058;2023-04-29T06:50:03;9.75;82.12
67279;DHT22;54193;53.746;10.058;2023-04-29T06:52:49;9.83;81.53
67279;DHT22;54193;53.746;10.058;2023-04-29T06:55:35;10.33;81.17
67279;DHT22;54193;53.746;10.058;2023-04-29T06:58:20;10.05;79.34
67279;DHT22;54193;53.746;10.058;2023-04-29T07:01:06;10.95;80.00
67279;DHT22;54193;53.746;10.058;2023-04-29T07:03:53;10.68;80.12
67279;DHT22;54193;53.746;10.058;2023-04-29T07:06:38;10.24;79.14
67279;DHT22;54193;53.746;10.058;2023-04-29T07:09:24;10.09;78.51
67279;DHT22;54193;53.746;10.058;2023-04-29T07:12:11;10.32;77.57
67279;DHT22;54193;53.746;10.058;2023-04-29T07:14:57;10.44;78.27
67279;DHT22;54193;53.746;10.058;2023-04-29T07:17:44;10.09;77.25
67279;DHT22;54193;53.746;10.058;2023-04-29T07:20:30;10.20;77.79
67279;DHT22;54193;53.746;10.058;2023-04-29T07:23:15;10.57;76.92
67279;DHT22;54193;53.746;10.058;2023-04-29T07:26:14;10.38;75.88
67279;DHT22;54193;53.746;10.058;2023-04-29T07:29:00;10.55;75.65
67279;DHT22;54193;53.746;10.058;2023-04-29T07:31:46;10.95;74.50
67279;DHT22;54193;53.746;10.058;2023-04-29T07:34:31;10.89;73.65
67279;DHT22;54193;53.746;10.058;2023-04-29T07:37:17;10.71;74.85
67279;DHT22;54193;53.746;10.058;2023-04-29T07:40:03;10.44;74.62
67279;DHT22;54193;53.746;10.058;2023-04-29T07:42:49;10.50;74.38
67279;DHT22;54193;53.746;10.058;2023-04-29T07:45:35;11.20;73.76
67279;DHT22;54193;53.746;10.058;2023-04-29T07:48:21;11.13;73.90
67279;DHT22;54193;53.746;10.058;2023-04-29T07:51:11;10.95;73.91
67279;DHT22;54193;53.746;10.058;2023-04-29T07:53:57;10.91;73.28
67279;DHT22;54193;53.746;10.058;2023-04-29T07:56:43;11.33;74.62
67279;DHT22;54193;53.746;10.058;2023-04-29T07:59:29;11.24;73.45
67279;DHT22;54193;53.746;10.058;2023-04-29T08:02:15;11.79;74.35
67279;DHT22;54193;53.746;10.058;2023-04-29T08:05:01;11.48;72.86
67279;DHT22;54193;53.746;10.058;2023-04-29T08:07:47;12.20;70.19
67279;DHT22;54193;53.746;10.058;2023-04-29T08:10:37;11.22;70.95
67279;DHT22;54193;53.746;10.058;2023-04-29T08:13:25;11.92;70.97
67279;DHT22;54193;53.746;10.058;2023-04-29T08:16:11;12.09;72.58
67279;DHT22;54193;53.746;10.058;2023-04-29T08:18:56;12.08;71.42
67279;DHT22;54193;53.746;10.058;2023-04-29T08:21:42;12.39;71.57
67279;DHT22;54193;53.746;10.058;2023-04-29T08:24:28;12.16;71.44
67279;DHT22;54193;53.746;10.058;2023-04-29T08:27:14;12.08;71.18
67279;DHT22;54193;53.746;10.058;2023-04-29T08:29:59;12.43;69.79
67279;DHT22;54193;53.746;10.058;2023-04-29T08:32:45;12.70;67.84
67279;DHT22;54193;53.746;10.058;2023-04-29T08:35:31;12.80;69.17
67279;DHT22;54193;53.746;10.058;2023-04-29T08:38:17;12.47;67.21
67279;DHT22;54193;53.746;10.058;2023-04-29T08:41:02;12.41;70.07
67279;DHT22;54193;53.746;10.058;2023-04-29T08:43:48;13.04;66.90
67279;DHT22;54193;53.746;10.058;2023-04-29T08:46:33;12.88;67.37
67279;DHT22;54193;53.746;10.058;2023-04-29T08:49:19;13.05;67.97
67279;DHT22;54193;53.746;10.058;2023-04-29T08:52:05;13.04;68.24
67279;DHT22;54193;53.746;10.058;2023-04-29T08:54:50;13.36;68.53
67279;DHT22;54193;53.746;10.058;2023-04-29T08:57:37;13.44;67.01
67279;DHT22;54193;53.746;10.058;2023-04-29T09:00:24;13.01;69.58
67279;DHT22;54193;53.746;10.058;2023-04-29T09:03:24;13.53;65.55
67279;DHT22;54193;53.746;10.058;2023-04-29T09:06:11;13.43;66.18
67279;DHT22;54193;53.746;10.058;2023-04-29T09:08:58;13.40;68.07
67279;DHT22;54193;53.746;10.058;2023-04-29T09:11:44;12.85;66.56
67279;DHT22;54193;53.746;10.058;2023-04-29T09:14:30;13.44;67.26
67279;DHT22;54193;53.746;10.058;2023-04-29T09:17:18;13.84;63.69
67279;DHT22;54193;53.746;10.058;2023-04-29T09:20:25;13.18;65.59
67279;DHT22;54193;53.746;10.058;2023-04-29T09:23:11;12.96;65.88
67279;DHT22;54193;53.746;10.058;2023-04-29T09:25:57;13.52;67.61
67279;DHT22;54193;53.746;10.058;2023-04-29T09:28:42;13.23;66.69
67279;DHT22;54193;53.746;10.058;2023-04-29T09:31:29;13.42;68.06
67279;DHT22;54193;53.746;10.058;2023-04-29T09:34:15;14.85;64.68
67279;DHT22;54193;53.746;10.058;2023-04-29T09:37:00;15.86;66.19
67279;DHT22;54193;53.746;10.058;2023-04-29T09:39:46;16.65;61.65
67279;DHT22;54193;53.746;10.058;2023-04-29T09:42:41;17.08;58.78
67279;DHT22;54193;53.746;10.058;2023-04-29T09:45:37;14.40;64.46
67279;DHT22;54193;53.746;10.058;2023-04-29T09:48:30;14.05;63.14
67279;DHT22;54193;53.746;10.058;2023-04-29T09:51:16;13.50;61.79
67279;DHT22;54193;53.746;10.058;2023-04-29T09:54:19;14.22;62.03
67279;DHT22;54193;53.746;10.058;2023-04-29T09:57:06;13.52;62.04
67279;DHT22;54193;53.746;10.058;2023-04-29T09:59:52;13.84;61.95
67279;DHT22;54193;53.746;10.058;2023-04-29T10:02:40;14.77;62.11
67279;DHT22;54193;53.746;10.058;2023-04-29T10:05:28;14.39;61.20
67279;DHT22;54193;53.746;10.058;2023-04-29T10:08:15;14.22;60.40
67279;DHT22;54193;53.746;10.058;2023-04-29T10:11:04;16.47;56.07
67279;DHT22;54193;53.746;10.058;2023-04-29T10:13:50;14.81;60.92
67279;DHT22;54193;53.746;10.058;2023-04-29T10:16:43;13.29;62.12
67279;DHT22;54193;53.746;10.058;2023-04-29T10:19:46;13.85;59.04
67279;DHT22;54193;53.746;10.058;2023-04-29T10:22:44;13.61;64.50
67279;DHT22;54193;53.746;10.058;2023-04-29T10:25:31;13.61;66.67
67279;DHT22;54193;53.746;10.058;2023-04-29T10:28:17;13.53;62.94
67279;DHT22;54193;53.746;10.058;2023-04-29T10:31:05;13.33;64.94
67279;DHT22;54193;53.746;10.058;2023-04-29T10:33:55;13.53;63.16
67279;DHT22;54193;53.746;10.058;2023-04-29T10:36:42;13.67;63.60
67279;DHT22;54193;53.746;10.058;2023-04-29T10:42:32;13.69;62.31
67279;DHT22;54193;53.746;10.058;2023-04-29T10:48:12;13.81;62.69
67279;DHT22;54193;53.746;10.058;2023-04-29T10:50:59;14.00;62.28
67279;DHT22;54193;53.746;10.058;2023-04-29T10:56:51;14.01;59.44
67279;DHT22;54193;53.746;10.058;2023-04-29T11:02:24;14.77;62.07
67279;DHT22;54193;53.746;10.058;2023-04-29T11:05:10;14.24;60.84
67279;DHT22;54193;53.746;10.058;2023-04-29T11:11:00;14.43;64.55
67279;DHT22;54193;53.746;10.058;2023-04-29T11:13:49;14.64;62.25
67279;DHT22;54193;53.746;10.058;2023-04-29T11:16:34;14.42;62.18
67279;DHT22;54193;53.746;10.058;2023-04-29T11:19:24;14.36;63.05
67279;DHT22;54193;53.746;10.058;2023-04-29T11:22:23;14.57;61.22
67279;DHT22;54193;53.746;10.058;2023-04-29T11:25:09;14.64;65.08
67279;DHT22;54193;53.746;10.058;2023-04-29T11:27:56;14.76;61.17
67279;DHT22;54193;53.746;10.058;2023-04-29T11:30:45;14.83;60.75
67279;DHT22;54193;53.746;10.058;2023-04-29T11:33:31;14.47;58.82
67279;DHT22;54193;53.746;10.058;2023-04-29T11:36:17;14.56;60.03
67279;DHT22;54193;53.746;10.058;2023-04-29T11:39:03;14.76;59.93
67279;DHT22;54193;53.746;10.058;2023-04-29T11:41:49;14.70;61.59
67279;DHT22;54193;53.746;10.058;2023-04-29T11:44:35;15.02;60.84
67279;DHT22;54193;53.746;10.058;2023-04-29T11:47:26;15.11;59.86
67279;DHT22;54193;53.746;10.058;2023-04-29T11:50:13;14.79;59.36
67279;DHT22;54193;53.746;10.058;2023-04-29T11:53:01;14.02;57.91
67279;DHT22;54193;53.746;10.058;2023-04-29T11:55:46;14.19;60.86
67279;DHT22;54193;53.746;10.058;2023-04-29T11:58:32;14.57;59.56
67279;DHT22;54193;53.746;10.058;2023-04-29T12:01:19;14.90;61.71
67279;DHT22;54193;53.746;10.058;2023-04-29T12:04:04;14.77;60.05
67279;DHT22;54193;53.746;10.058;2023-04-29T12:06:51;14.22;60.43
67279;DHT22;54193;53.746;10.058;2023-04-29T12:09:41;14.45;61.48
67279;DHT22;54193;53.746;10.058;2023-04-29T12:12:28;14.59;61.30
67279;DHT22;54193;53.746;10.058;2023-04-29T12:15:15;14.46;58.27
67279;DHT22;54193;53.746;10.058;2023-04-29T12:18:01;14.35;57.82
67279;DHT22;54193;53.746;10.058;2023-04-29T12:20:48;14.63;59.10
67279;DHT22;54193;53.746;10.058;2023-04-29T12:23:35;14.98;59.08
67279;DHT22;54193;53.746;10.058;2023-04-29T12:26:21;14.91;57.69
67279;DHT22;54193;53.746;10.058;2023-04-29T12:29:09;15.12;57.43
67279;DHT22;54193;53.746;10.058;2023-04-29T12:31:55;15.27;58.21
67279;DHT22;54193;53.746;10.058;2023-04-29T12:34:41;15.18;54.94
67279;DHT22;54193;53.746;10.058;2023-04-29T12:37:26;15.27;58.31
67279;DHT22;54193;53.746;10.058;2023-04-29T12:40:14;15.12;56.96
67279;DHT22;54193;53.746;10.058;2023-04-29T12:43:07;15.11;58.96
67279;DHT22;54193;53.746;10.058;2023-04-29T12:46:07;15.08;58.21
67279;DHT22;54193;53.746;10.058;2023-04-29T12:48:53;15.24;58.07
67279;DHT22;54193;53.746;10.058;2023-04-29T12:51:39;14.88;58.43
67279;DHT22;54193;53.746;10.058;2023-04-29T12:54:25;14.57;58.96
67279;DHT22;54193;53.746;10.058;2023-04-29T12:57:11;14.32;60.50
67279;DHT22;54193;53.746;10.058;2023-04-29T12:59:56;14.73;61.25
67279;DHT22;54193;53.746;10.058;2023-04-29T13:02:42;14.74;61.63
67279;DHT22;54193;53.746;10.058;2023-04-29T13:05:28;14.88;59.00
67279;DHT22;54193;53.746;10.058;2023-04-29T13:08:13;15.08;59.03
67279;DHT22;54193;53.746;10.058;2023-04-29T13:10:59;15.27;59.97
67279;DHT22;54193;53.746;10.058;2023-04-29T13:13:45;15.42;59.21
67279;DHT22;54193;53.746;10.058;2023-04-29T13:16:33;15.24;58.46
67279;DHT22;54193;53.746;10.058;2023-04-29T13:19:19;15.02;61.18
67279;DHT22;54193;53.746;10.058;2023-04-29T13:22:05;14.29;58.70
67279;DHT22;54193;53.746;10.058;2023-04-29T13:24:51;14.17;59.44
67279;DHT22;54193;53.746;10.058;2023-04-29T13:27:37;14.46;59.03
67279;DHT22;54193;53.746;10.058;2023-04-29T13:30:23;14.69;57.30
67279;DHT22;54193;53.746;10.058;2023-04-29T13:33:08;14.30;57.20
67279;DHT22;54193;53.746;10.058;2023-04-29T13:35:54;14.09;56.58
67279;DHT22;54193;53.746;10.058;2023-04-29T13:38:40;14.00;57.27
67279;DHT22;54193;53.746;10.058;2023-04-29T13:41:26;14.14;55.87
67279;DHT22;54193;53.746;10.058;2023-04-29T13:44:12;14.24;56.95
67279;DHT22;54193;53.746;10.058;2023-04-29T13:46:57;14.18;56.89
67279;DHT22;54193;53.746;10.058;2023-04-29T13:49:43;14.52;57.52
67279;DHT22;54193;53.746;10.058;2023-04-29T13:52:28;14.62;58.40
67279;DHT22;54193;53.746;10.058;2023-04-29T13:55:15;14.59;57.99
67279;DHT22;54193;53.746;10.058;2023-04-29T13:58:01;14.76;57.92
67279;DHT22;54193;53.746;10.058;2023-04-29T14:00:47;14.92;57.23
67279;DHT22;54193;53.746;10.058;2023-04-29T14:03:33;15.02;56.80
67279;DHT22;54193;53.746;10.058;2023-04-29T14:06:19;14.81;57.76
67279;DHT22;54193;53.746;10.058;2023-04-29T14:09:04;14.84;58.02
67279;DHT22;54193;53.746;10.058;2023-04-29T14:11:50;15.04;56.99
67279;DHT22;54193;53.746;10.058;2023-04-29T14:14:36;14.81;56.55
67279;DHT22;54193;53.746;10.058;2023-04-29T14:17:21;14.85;57.06
67279;DHT22;54193;53.746;10.058;2023-04-29T14:20:07;14.83;55.89
67279;DHT22;54193;53.746;10.058;2023-04-29T14:22:53;14.79;57.13
67279;DHT22;54193;53.746;10.058;2023-04-29T14:25:39;14.73;59.34
67279;DHT22;54193;53.746;10.058;2023-04-29T14:28:24;13.78;57.99
67279;DHT22;54193;53.746;10.058;2023-04-29T14:31:10;13.54;60.11
67279;DHT22;54193;53.746;10.058;2023-04-29T14:33:58;13.49;60.23
67279;DHT22;54193;53.746;10.058;2023-04-29T14:36:44;13.53;60.58
67279;DHT22;54193;53.746;10.058;2023-04-29T14:39:30;13.49;60.30
67279;DHT22;54193;53.746;10.058;2023-04-29T14:42:16;13.71;60.55
67279;DHT22;54193;53.746;10.058;2023-04-29T14:45:03;14.28;60.17
67279;DHT22;54193;53.746;10.058;2023-04-29T14:47:49;14.12;60.34
67279;DHT22;54193;53.746;10.058;2023-04-29T14:50:34;14.29;61.12
67279;DHT22;54193;53.746;10.058;2023-04-29T14:53:20;14.47;59.81
67279;DHT22;54193;53.746;10.058;2023-04-29T14:56:06;14.50;61.27
67279;DHT22;54193;53.746;10.058;2023-04-29T14:58:52;14.45;62.31
67279;DHT22;54193;53.746;10.058;2023-04-29T15:01:37;13.77;62.56
67279;DHT22;54193;53.746;10.058;2023-04-29T15:04:24;14.07;64.16
67279;DHT22;54193;53.746;10.058;2023-04-29T15:07:11;14.07;62.00
67279;DHT22;54193;53.746;10.058;2023-04-29T15:09:57;14.17;62.59
67279;DHT22;54193;53.746;10.058;2023-04-29T15:12:42;13.92;63.66
67279;DHT22;54193;53.746;10.058;2023-04-29T15:15:28;13.97;63.01
67279;DHT22;54193;53.746;10.058;2023-04-29T15:18:13;13.81;63.83
67279;DHT22;54193;53.746;10.058;2023-04-29T15:20:59;13.56;61.02
67279;DHT22;54193;53.746;10.058;2023-04-29T15:23:45;13.40;62.00
67279;DHT22;54193;53.746;10.058;2023-04-29T15:26:31;13.26;61.62
67279;DHT22;54193;53.746;10.058;2023-04-29T15:29:17;13.30;63.03
67279;DHT22;54193;53.746;10.058;2023-04-29T15:32:02;13.26;62.46
67279;DHT22;54193;53.746;10.058;2023-04-29T15:34:48;13.27;59.98
67279;DHT22;54193;53.746;10.058;2023-04-29T15:37:34;13.20;61.10
67279;DHT22;54193;53.746;10.058;2023-04-29T15:40:20;13.33;61.89
67279;DHT22;54193;53.746;10.058;2023-04-29T15:43:05;13.14;60.82
67279;DHT22;54193;53.746;10.058;2023-04-29T15:45:51;13.38;62.11
67279;DHT22;54193;53.746;10.058;2023-04-29T15:48:37;13.40;62.12
67279;DHT22;54193;53.746;10.058;2023-04-29T15:51:23;13.50;62.83
67279;DHT22;54193;53.746;10.058;2023-04-29T15:54:08;13.64;62.25
67279;DHT22;54193;53.746;10.058;2023-04-29T15:56:54;13.70;61.78
67279;DHT22;54193;53.746;10.058;2023-04-29T15:59:40;13.61;61.40
67279;DHT22;54193;53.746;10.058;2023-04-29T16:02:25;13.60;60.93
67279;DHT22;54193;53.746;10.058;2023-04-29T16:05:11;13.49;62.20
67279;DHT22;54193;53.746;10.058;2023-04-29T16:07:57;13.36;62.94
67279;DHT22;54193;53.746;10.058;2023-04-29T16:10:42;13.14;62.84
67279;DHT22;54193;53.746;10.058;2023-04-29T16:13:29;13.02;62.00
67279;DHT22;54193;53.746;10.058;2023-04-29T16:16:15;12.68;63.39
67279;DHT22;54193;53.746;10.058;2023-04-29T16:19:01;12.78;63.49
67279;DHT22;54193;53.746;10.058;2023-04-29T16:21:47;12.73;63.90
67279;DHT22;54193;53.746;10.058;2023-04-29T16:24:32;12.78;62.89
67279;DHT22;54193;53.746;10.058;2023-04-29T16:27:18;12.63;61.94
67279;DHT22;54193;53.746;10.058;2023-04-29T16:30:04;12.49;62.03
67279;DHT22;54193;53.746;10.058;2023-04-29T16:32:50;12.54;60.94
67279;DHT22;54193;53.746;10.058;2023-04-29T16:35:36;12.58;60.46
67279;DHT22;54193;53.746;10.058;2023-04-29T16:38:22;12.63;60.58
67279;DHT22;54193;53.746;10.058;2023-04-29T16:41:07;12.43;61.48
67279;DHT22;54193;53.746;10.058;2023-04-29T16:43:53;12.30;61.94
67279;DHT22;54193;53.746;10.058;2023-04-29T16:46:39;12.32;61.42
67279;DHT22;54193;53.746;10.058;2023-04-29T16:49:25;12.03;60.80
67279;DHT22;54193;53.746;10.058;2023-04-29T16:52:11;12.11;62.37
67279;DHT22;54193;53.746;10.058;2023-04-29T16:54:57;12.26;62.67
67279;DHT22;54193;53.746;10.058;2023-04-29T16:57:45;12.50;62.31
67279;DHT22;54193;53.746;10.058;2023-04-29T17:00:31;12.06;62.48
67279;DHT22;54193;53.746;10.058;2023-04-29T17:03:16;11.78;62.73
67279;DHT22;54193;53.746;10.058;2023-04-29T17:06:02;11.68;61.61
67279;DHT22;54193;53.746;10.058;2023-04-29T17:08:49;11.47;61.30
67279;DHT22;54193;53.746;10.058;2023-04-29T17:11:36;11.46;61.31
67279;DHT22;54193;53.746;10.058;2023-04-29T17:14:21;11.26;62.09
67279;DHT22;54193;53.746;10.058;2023-04-29T17:17:07;11.31;63.07
67279;DHT22;54193;53.746;10.058;2023-04-29T17:19:53;11.09;63.05
67279;DHT22;54193;53.746;10.058;2023-04-29T17:22:39;11.05;63.47
67279;DHT22;54193;53.746;10.058;2023-04-29T17:25:25;11.09;64.03
67279;DHT22;54193;53.746;10.058;2023-04-29T17:28:11;11.00;63.26
67279;DHT22;54193;53.746;10.058;2023-04-29T17:30:56;10.95;64.45
67279;DHT22;54193;53.746;10.058;2023-04-29T17:33:45;10.88;65.11
67279;DHT22;54193;53.746;10.058;2023-04-29T17:36:39;10.88;65.11
67279;DHT22;54193;53.746;10.058;2023-04-29T17:39:25;10.85;64.81
67279;DHT22;54193;53.746;10.058;2023-04-29T17:42:10;10.71;64.72
67279;DHT22;54193;53.746;10.058;2023-04-29T17:44:56;10.65;65.36